createdAt,value
2022-12-01T00:03:37.909Z,22.85
2022-12-01T00:08:41.137Z,24.87
2022-12-01T00:13:42.809Z,24.25
2022-12-01T00:18:44.913Z,25.85
2022-12-01T00:23:50.187Z,24.42
2022-12-01T00:28:53.408Z,25.60
2022-12-01T00:33:55.466Z,27.98
2022-12-01T00:38:58.616Z,25.40
2022-12-01T00:44:00.305Z,24.63
2022-12-01T00:49:02.066Z,26.77
2022-12-01T00:54:05.235Z,25.10
2022-12-01T00:59:10.206Z,24.08
2022-12-01T01:09:15.649Z,26.08
2022-12-01T01:14:17.395Z,27.10
2022-12-01T01:19:19.167Z,26.10
2022-12-01T01:24:22.257Z,26.00
2022-12-01T01:29:24.061Z,25.65
2022-12-01T01:34:25.866Z,25.60
2022-12-01T01:39:29.145Z,24.30
2022-12-01T01:44:50.022Z,25.48
2022-12-01T01:49:53.173Z,25.50
2022-12-01T01:54:56.459Z,26.08
2022-12-01T02:00:01.610Z,27.08
2022-12-01T02:05:06.438Z,26.27
2022-12-01T02:10:12.999Z,27.23
2022-12-01T02:15:23.104Z,26.12
2022-12-01T02:20:51.778Z,27.33
2022-12-01T02:26:10.898Z,27.58
2022-12-01T02:31:16.684Z,27.37
2022-12-01T02:36:26.171Z,28.52
2022-12-01T02:41:32.555Z,29.15
2022-12-01T02:46:39.453Z,26.95
2022-12-01T02:51:43.211Z,27.00
2022-12-01T02:56:45.062Z,28.12
2022-12-01T03:02:00.564Z,26.40
2022-12-01T03:07:11.319Z,28.77
2022-12-01T03:12:20.487Z,25.95
2022-12-01T03:17:29.044Z,26.67
2022-12-01T03:22:36.698Z,24.23
2022-12-01T03:28:00.640Z,27.87
2022-12-01T03:33:09.187Z,25.25
2022-12-01T03:38:14.442Z,26.73
2022-12-01T03:43:21.063Z,26.35
2022-12-01T03:48:25.489Z,27.20
2022-12-01T03:53:32.790Z,26.80
2022-12-01T03:58:40.032Z,25.23
2022-12-01T04:03:45.665Z,26.90
2022-12-01T04:08:47.455Z,26.65
2022-12-01T04:13:52.232Z,25.92
2022-12-01T04:18:55.389Z,27.23
2022-12-01T04:23:57.144Z,26.95
2022-12-01T04:28:59.083Z,25.45
2022-12-01T04:34:02.969Z,26.25
2022-12-01T04:39:05.129Z,26.62
2022-12-01T04:44:06.803Z,29.05
2022-12-01T04:49:10.119Z,28.77
2022-12-01T04:54:12.022Z,27.35
2022-12-01T04:59:14.002Z,27.75
2022-12-01T05:04:17.080Z,29.65
2022-12-01T05:09:18.804Z,28.08
2022-12-01T05:14:20.673Z,28.45
2022-12-01T05:19:23.828Z,27.37
2022-12-01T05:24:25.780Z,28.33
2022-12-01T05:29:27.483Z,27.45
2022-12-01T05:34:30.589Z,31.80
2022-12-01T05:39:35.400Z,28.48
2022-12-01T05:44:37.202Z,30.40
2022-12-01T05:49:40.256Z,27.98
2022-12-01T05:54:43.124Z,30.83
2022-12-01T05:59:44.814Z,28.23
2022-12-01T06:04:47.865Z,27.92
2022-12-01T06:09:49.928Z,29.60
2022-12-01T06:14:51.824Z,31.15
2022-12-01T06:19:54.933Z,27.98
2022-12-01T06:24:56.631Z,27.30
2022-12-01T06:29:58.366Z,29.05
2022-12-01T06:35:01.536Z,28.52
2022-12-01T06:40:06.120Z,26.05
2022-12-01T06:45:08.959Z,26.52
2022-12-01T06:50:12.476Z,26.08
2022-12-01T06:55:14.629Z,26.33
2022-12-01T07:00:17.321Z,24.55
2022-12-01T07:05:20.958Z,24.85
2022-12-01T07:10:22.643Z,24.85
2022-12-01T07:15:24.426Z,21.48
2022-12-01T07:20:27.719Z,22.90
2022-12-01T07:25:29.515Z,20.70
2022-12-01T07:30:31.379Z,20.73
2022-12-01T07:35:34.544Z,21.20
2022-12-01T07:40:36.199Z,19.83
2022-12-01T07:45:37.870Z,22.05
2022-12-01T07:50:40.861Z,22.00
2022-12-01T07:55:48.042Z,22.25
2022-12-01T08:00:49.743Z,19.62
2022-12-01T08:05:57.521Z,21.60
2022-12-01T08:11:01.092Z,21.65
2022-12-01T08:16:03.865Z,21.15
2022-12-01T08:21:09.354Z,21.40
2022-12-01T08:26:13.253Z,21.98
2022-12-01T08:31:17.215Z,21.52
2022-12-01T08:36:21.343Z,22.37
2022-12-01T08:41:23.460Z,22.73
2022-12-01T08:46:25.775Z,22.05
2022-12-01T08:51:29.190Z,20.62
2022-12-01T08:56:33.132Z,22.08
2022-12-01T09:01:35.941Z,21.60
2022-12-01T09:06:41.397Z,21.15
2022-12-01T09:11:43.391Z,22.80
2022-12-01T09:16:51.645Z,20.17
2022-12-01T09:21:54.787Z,21.73
2022-12-01T09:26:57.998Z,20.12
2022-12-01T09:32:00.716Z,21.67
2022-12-01T09:37:03.864Z,19.77
2022-12-01T09:42:12.119Z,21.73
2022-12-01T09:47:18.572Z,19.92
2022-12-01T09:52:23.810Z,19.12
2022-12-01T09:57:30.612Z,20.30
2022-12-01T10:02:37.646Z,20.83
2022-12-01T10:07:47.059Z,21.50
2022-12-01T10:12:48.809Z,20.77
2022-12-01T10:18:12.626Z,20.50
2022-12-01T10:23:33.671Z,20.33
2022-12-01T10:28:57.433Z,20.10
2022-12-01T10:34:01.868Z,20.40
2022-12-01T10:39:06.891Z,20.00
2022-12-01T10:49:13.249Z,19.83
2022-12-01T10:54:16.827Z,22.05
2022-12-01T10:59:32.655Z,22.17
2022-12-01T11:04:38.836Z,20.95
2022-12-01T11:09:42.404Z,21.12
2022-12-01T11:14:48.296Z,22.05
2022-12-01T11:19:50.328Z,23.05
2022-12-01T11:25:27.455Z,22.33
2022-12-01T11:30:38.085Z,23.85
2022-12-01T11:36:06.240Z,23.02
2022-12-01T11:41:42.950Z,22.80
2022-12-01T11:47:07.627Z,23.40
2022-12-01T11:52:28.282Z,23.80
2022-12-01T11:57:54.650Z,23.38
2022-12-01T12:09:53.073Z,23.17
2022-12-01T12:15:35.379Z,24.63
2022-12-01T12:21:02.706Z,23.73
2022-12-01T12:26:24.540Z,24.50
2022-12-01T12:38:29.844Z,25.40
2022-12-01T13:01:37.743Z,24.98
2022-12-01T13:06:43.580Z,22.60
2022-12-01T13:11:49.827Z,24.73
2022-12-01T13:16:55.656Z,23.77
2022-12-01T13:21:58.886Z,23.45
2022-12-01T13:27:05.810Z,23.85
2022-12-01T13:32:31.425Z,24.60
2022-12-01T13:37:37.535Z,23.87
2022-12-01T13:43:04.337Z,24.12
2022-12-01T13:54:41.769Z,24.02
2022-12-01T14:06:43.276Z,23.50
2022-12-01T14:11:57.264Z,22.45
2022-12-01T14:17:10.122Z,21.87
2022-12-01T14:34:17.342Z,22.92
2022-12-01T14:39:26.106Z,22.85
2022-12-01T14:44:33.292Z,23.60
2022-12-01T14:49:40.460Z,22.62
2022-12-01T14:55:09.534Z,22.33
2022-12-01T15:00:29.562Z,23.05
2022-12-01T15:06:00.649Z,23.17
2022-12-01T15:11:18.989Z,24.42
2022-12-01T15:17:01.114Z,24.73
2022-12-01T15:22:24.560Z,22.87
2022-12-01T15:34:01.487Z,23.77
2022-12-01T15:39:06.965Z,24.20
2022-12-01T15:44:20.763Z,24.95
2022-12-01T15:49:26.347Z,23.23
2022-12-01T15:54:28.092Z,25.83
2022-12-01T15:59:37.476Z,23.27
2022-12-01T16:04:39.605Z,24.95
2022-12-01T16:09:42.840Z,25.45
2022-12-01T16:15:07.360Z,24.37
2022-12-01T16:20:27.291Z,24.10
2022-12-01T16:25:56.700Z,23.83
2022-12-01T16:31:18.129Z,24.45
2022-12-01T16:41:43.446Z,25.30
2022-12-01T16:52:56.888Z,24.35
2022-12-01T16:57:58.611Z,24.35
2022-12-01T17:03:00.936Z,23.67
2022-12-01T17:08:04.815Z,23.30
2022-12-01T17:13:06.621Z,24.67
2022-12-01T17:18:08.519Z,23.52
2022-12-01T17:23:11.977Z,24.55
2022-12-01T17:28:13.777Z,27.30
2022-12-01T17:33:15.653Z,24.42
2022-12-01T17:38:18.822Z,26.17
2022-12-01T17:43:20.507Z,23.17
2022-12-01T17:48:22.259Z,27.60
2022-12-01T17:53:26.841Z,27.13
2022-12-01T17:58:30.267Z,26.58
2022-12-01T18:03:32.323Z,27.62
2022-12-01T18:08:36.213Z,27.15
2022-12-01T18:13:39.338Z,27.83
2022-12-01T18:18:41.408Z,27.92
2022-12-01T18:23:48.679Z,28.60
2022-12-01T18:28:53.967Z,26.58
2022-12-01T18:33:57.897Z,27.27
2022-12-01T18:39:01.982Z,27.80
2022-12-01T18:44:04.147Z,28.27
2022-12-01T18:49:06.042Z,28.95
2022-12-01T18:54:12.397Z,28.23
2022-12-01T18:59:14.144Z,27.75
2022-12-01T19:04:16.565Z,29.37
2022-12-01T19:09:19.680Z,28.65
2022-12-01T19:14:21.359Z,27.42
2022-12-01T19:19:23.417Z,28.98
2022-12-01T19:24:26.641Z,29.92
2022-12-01T19:29:28.369Z,27.58
2022-12-01T19:34:30.100Z,28.42
2022-12-01T19:39:33.378Z,28.90
2022-12-01T19:44:35.183Z,28.65
2022-12-01T19:49:37.394Z,29.80
2022-12-01T19:54:40.599Z,30.88
2022-12-01T19:59:42.361Z,28.27
2022-12-01T20:04:44.068Z,30.60
2022-12-01T20:09:50.100Z,30.65
2022-12-01T20:14:52.447Z,29.00
2022-12-01T20:19:54.310Z,28.38
2022-12-01T20:24:57.387Z,28.75
2022-12-01T20:29:59.277Z,29.02
2022-12-01T20:35:01.011Z,29.15
2022-12-01T20:40:05.081Z,29.37
2022-12-01T20:45:07.722Z,27.20
2022-12-01T20:50:10.060Z,29.35
2022-12-01T20:55:13.125Z,29.15
2022-12-01T21:00:16.013Z,29.00
2022-12-01T21:05:19.690Z,28.17
2022-12-01T21:10:23.255Z,27.70
2022-12-01T21:15:30.672Z,29.42
2022-12-01T21:20:35.265Z,29.65
2022-12-01T21:25:39.718Z,28.77
2022-12-01T21:30:41.622Z,28.65
2022-12-01T21:35:46.962Z,29.55
2022-12-01T21:40:50.219Z,29.10
2022-12-01T21:45:57.898Z,30.45
2022-12-01T21:51:07.020Z,30.37
2022-12-01T21:56:19.175Z,30.77
2022-12-01T22:01:26.759Z,28.50
2022-12-01T22:06:35.168Z,28.67
2022-12-01T22:11:38.382Z,29.45
2022-12-01T22:16:42.676Z,29.40
2022-12-01T22:21:45.386Z,27.20
2022-12-01T22:26:50.766Z,26.65
2022-12-01T22:32:40.291Z,29.15
2022-12-01T22:37:45.406Z,28.35
2022-12-01T22:42:58.677Z,27.02
2022-12-01T22:48:01.901Z,30.80
2022-12-01T22:53:12.511Z,28.52
2022-12-01T22:58:24.445Z,27.80
2022-12-01T23:03:26.445Z,26.90
2022-12-01T23:08:28.204Z,26.15
2022-12-01T23:13:31.410Z,29.60
2022-12-01T23:18:33.416Z,26.90
2022-12-01T23:23:36.838Z,26.65
2022-12-01T23:28:40.079Z,28.02
2022-12-01T23:33:41.765Z,27.08
2022-12-01T23:38:45.463Z,28.23
2022-12-01T23:43:49.046Z,28.35
2022-12-01T23:48:52.675Z,29.83
2022-12-01T23:53:55.890Z,27.65
2022-12-01T23:59:00.923Z,27.35
